Time;durP1;ratioP1;P1;durP2;ratioP2;P2;SDS_P1;SDS_P2;PMS_P1;PMS_P2;Temp;Humidity;BMP_temperature;BMP_pressure;BME280_temperature;BME280_humidity;BME280_pressure;Samples;Min_cycle;Max_cycle;Signal;HPM_P1;HPM_P2
2020/12/12 00:00:16;;;;;;;10.80;9.70;;;6.90;99.90;;;;;;5047060;28;20225;-48
2020/12/12 00:02:41;;;;;;;11.13;9.03;;;6.60;99.90;;;;;;5039898;28;20278;-46
2020/12/12 00:05:07;;;;;;;18.23;9.23;;;6.60;99.90;;;;;;5047226;28;20193;-47
2020/12/12 00:07:33;;;;;;;10.30;8.90;;;6.60;99.90;;;;;;5047639;28;20604;-43
2020/12/12 00:09:59;;;;;;;12.63;9.40;;;6.50;99.90;;;;;;5047910;28;20869;-48
2020/12/12 00:12:25;;;;;;;13.40;10.37;;;6.60;99.90;;;;;;5046573;28;20570;-44
2020/12/12 00:14:51;;;;;;;12.80;10.10;;;6.40;99.90;;;;;;5046752;28;20493;-43
2020/12/12 00:17:19;;;;;;;10.63;9.23;;;6.70;99.90;;;;;;5047477;28;20496;-45
2020/12/12 00:19:46;;;;;;;12.13;9.40;;;6.50;99.90;;;;;;5047709;28;20489;-45
2020/12/12 00:22:11;;;;;;;9.53;8.50;;;6.60;99.90;;;;;;5047874;28;20996;-48
2020/12/12 00:24:37;;;;;;;11.97;10.30;;;6.50;99.90;;;;;;5046872;28;20439;-43
2020/12/12 00:27:02;;;;;;;10.70;9.33;;;6.70;99.90;;;;;;5047823;28;20307;-44
2020/12/12 00:29:28;;;;;;;11.30;9.97;;;6.70;99.90;;;;;;5047363;28;20213;-46
2020/12/12 00:31:58;;;;;;;13.30;9.87;;;6.70;99.90;;;;;;5047586;28;20186;-46
2020/12/12 00:34:25;;;;;;;12.07;9.37;;;6.60;99.90;;;;;;5046960;28;20219;-45
2020/12/12 00:36:51;;;;;;;11.97;10.00;;;6.60;99.90;;;;;;5047690;28;20921;-46
2020/12/12 00:39:17;;;;;;;13.63;10.27;;;6.70;99.90;;;;;;5047309;28;20523;-45
2020/12/12 00:41:44;;;;;;;13.13;9.70;;;6.70;99.90;;;;;;5047471;28;20553;-49
2020/12/12 00:44:10;;;;;;;9.83;8.80;;;6.70;99.90;;;;;;5046455;28;20566;-45
2020/12/12 00:46:37;;;;;;;10.90;9.23;;;6.70;99.90;;;;;;5047238;28;20834;-46
2020/12/12 00:49:03;;;;;;;11.23;9.60;;;6.50;99.90;;;;;;5047186;28;20463;-48
2020/12/12 00:51:29;;;;;;;14.43;8.63;;;6.70;99.90;;;;;;5047333;28;20819;-47
2020/12/12 00:53:55;;;;;;;11.07;8.87;;;6.50;99.90;;;;;;5046726;28;20443;-45
2020/12/12 00:56:20;;;;;;;11.60;8.60;;;6.70;99.90;;;;;;5046138;28;20296;-43
2020/12/12 00:58:46;;;;;;;11.63;9.93;;;6.40;99.90;;;;;;5047086;28;20193;-44
2020/12/12 01:01:12;;;;;;;11.80;9.17;;;6.50;99.90;;;;;;5046825;28;20217;-51
2020/12/12 01:03:42;;;;;;;11.10;8.30;;;6.60;99.90;;;;;;5046670;28;20186;-44
2020/12/12 01:06:15;;;;;;;13.10;9.73;;;6.50;99.90;;;;;;5045962;28;20430;-45
2020/12/12 01:08:42;;;;;;;12.03;9.83;;;6.90;99.90;;;;;;5045927;28;20762;-43
2020/12/12 01:11:10;;;;;;;11.43;9.50;;;6.90;99.90;;;;;;5047082;28;20505;-47
2020/12/12 01:13:36;;;;;;;11.40;9.83;;;6.80;99.90;;;;;;5046127;28;20420;-45
2020/12/12 01:16:06;;;;;;;14.20;10.23;;;6.60;99.90;;;;;;5047040;28;20511;-44
2020/12/12 01:18:31;;;;;;;10.60;8.40;;;6.70;99.90;;;;;;5047032;28;20886;-43
2020/12/12 01:20:57;;;;;;;12.83;9.47;;;6.90;99.90;;;;;;5047176;28;20659;-47
2020/12/12 01:23:23;;;;;;;13.27;10.10;;;6.80;99.90;;;;;;5046417;28;20606;-46
2020/12/12 01:25:48;;;;;;;12.27;10.10;;;6.80;99.90;;;;;;5046916;28;20220;-46
2020/12/12 01:28:14;;;;;;;10.90;8.63;;;6.90;99.90;;;;;;5048765;28;20247;-48
2020/12/12 01:30:40;;;;;;;9.43;8.10;;;6.90;99.90;;;;;;5050399;28;20220;-45
2020/12/12 01:33:05;;;;;;;10.63;8.87;;;6.70;99.90;;;;;;5049986;28;20190;-45
2020/12/12 01:35:31;;;;;;;10.80;8.80;;;7.00;99.90;;;;;;5050428;28;20232;-43
2020/12/12 01:37:57;;;;;;;11.77;8.90;;;7.00;99.90;;;;;;5050412;28;20193;-46
2020/12/12 01:40:22;;;;;;;9.90;8.27;;;6.90;99.90;;;;;;5049194;28;20549;-45
2020/12/12 01:42:48;;;;;;;10.63;9.27;;;6.80;99.90;;;;;;5050227;28;20194;-46
2020/12/12 01:45:14;;;;;;;9.10;8.00;;;6.80;99.90;;;;;;5050150;28;20251;-46
2020/12/12 01:47:39;;;;;;;10.60;8.77;;;6.80;99.90;;;;;;5050282;28;20217;-49
2020/12/12 01:50:06;;;;;;;11.93;9.83;;;6.80;99.90;;;;;;5050438;28;20395;-43
2020/12/12 01:52:32;;;;;;;12.00;10.13;;;6.80;99.90;;;;;;5049871;28;20189;-45
2020/12/12 01:54:59;;;;;;;11.57;9.77;;;6.80;99.90;;;;;;5049385;28;20980;-49
2020/12/12 01:57:25;;;;;;;11.33;8.90;;;6.60;99.90;;;;;;5047546;28;20424;-42
2020/12/12 01:59:51;;;;;;;11.40;9.90;;;6.80;99.90;;;;;;5050354;28;20427;-48
2020/12/12 02:02:19;;;;;;;11.97;9.47;;;6.70;99.90;;;;;;5049981;28;20243;-47
2020/12/12 02:05:04;;;;;;;13.40;10.30;;;6.50;99.90;;;;;;5049115;28;20424;-46
2020/12/12 02:07:30;;;;;;;14.00;11.20;;;6.70;99.90;;;;;;5049791;28;20486;-44
2020/12/12 02:09:56;;;;;;;13.70;10.03;;;6.60;99.90;;;;;;5049573;28;20448;-48
2020/12/12 02:12:22;;;;;;;13.63;10.80;;;6.50;99.90;;;;;;5049941;28;20464;-46
2020/12/12 02:14:48;;;;;;;12.67;10.27;;;6.50;99.90;;;;;;5049512;28;20424;-44
2020/12/12 02:17:13;;;;;;;13.03;10.40;;;6.50;99.90;;;;;;5049704;28;20440;-51
2020/12/12 02:19:39;;;;;;;13.17;10.60;;;6.70;99.90;;;;;;5049625;28;20423;-44
2020/12/12 02:22:08;;;;;;;12.30;10.17;;;6.40;99.90;;;;;;5049620;28;20192;-46
2020/12/12 02:24:34;;;;;;;13.83;11.43;;;6.50;99.90;;;;;;5048488;28;20503;-45
2020/12/12 02:27:05;;;;;;;13.07;10.67;;;6.50;99.90;;;;;;5049528;28;20420;-45
2020/12/12 02:29:52;;;;;;;14.97;10.10;;;6.60;99.90;;;;;;5049188;28;20494;-43
2020/12/12 02:32:18;;;;;;;13.60;10.43;;;6.70;99.90;;;;;;5048412;28;20813;-44
2020/12/12 02:34:44;;;;;;;15.40;11.20;;;6.70;99.90;;;;;;5046920;28;20422;-44
2020/12/12 02:37:10;;;;;;;14.90;10.70;;;6.50;99.90;;;;;;5049217;28;20423;-45
2020/12/12 02:39:35;;;;;;;14.27;10.67;;;6.70;99.90;;;;;;5049049;28;20425;-44
2020/12/12 02:42:01;;;;;;;13.30;10.67;;;6.50;99.90;;;;;;5049610;28;20590;-43
2020/12/12 02:44:27;;;;;;;13.23;10.63;;;6.70;99.90;;;;;;5048787;28;20224;-47
2020/12/12 02:46:53;;;;;;;14.70;10.37;;;6.50;99.90;;;;;;5049035;28;20238;-46
2020/12/12 02:49:18;;;;;;;14.13;10.47;;;6.70;99.90;;;;;;5047412;28;20723;-45
2020/12/12 02:51:44;;;;;;;14.73;10.40;;;6.50;99.90;;;;;;5048843;28;20440;-49
2020/12/12 02:54:10;;;;;;;14.63;10.83;;;6.50;99.90;;;;;;5048063;28;20667;-45
2020/12/12 02:56:36;;;;;;;13.87;11.33;;;6.60;99.90;;;;;;5047869;28;20189;-44
2020/12/12 02:59:02;;;;;;;13.97;9.70;;;6.60;99.90;;;;;;5048584;28;20786;-44
2020/12/12 03:01:28;;;;;;;12.73;10.20;;;6.70;99.90;;;;;;5048979;28;20432;-44
2020/12/12 03:03:54;;;;;;;13.77;10.10;;;6.80;99.90;;;;;;5047787;28;20420;-44
2020/12/12 03:06:20;;;;;;;12.17;10.07;;;6.70;99.90;;;;;;5048743;28;20200;-44
2020/12/12 03:08:46;;;;;;;14.70;10.53;;;6.90;99.90;;;;;;5048722;28;20222;-47
2020/12/12 03:11:11;;;;;;;13.07;10.33;;;6.90;99.90;;;;;;5048665;28;20551;-45
2020/12/12 03:13:37;;;;;;;12.43;9.37;;;6.80;99.90;;;;;;5048302;28;20420;-43
2020/12/12 03:16:03;;;;;;;12.77;9.50;;;6.80;99.90;;;;;;5047094;28;20204;-46
2020/12/12 03:18:28;;;;;;;15.57;10.50;;;6.70;99.90;;;;;;5048729;28;20194;-46
2020/12/12 03:20:54;;;;;;;13.50;10.63;;;6.60;99.90;;;;;;5048228;28;20719;-48
2020/12/12 03:23:20;;;;;;;13.57;10.37;;;6.70;99.90;;;;;;5046496;28;20564;-45
2020/12/12 03:25:45;;;;;;;13.37;10.13;;;6.60;99.90;;;;;;5048445;28;20263;-49
2020/12/12 03:28:12;;;;;;;11.93;9.57;;;6.70;99.90;;;;;;5048532;28;20209;-48
2020/12/12 03:30:37;;;;;;;13.30;10.60;;;6.70;99.90;;;;;;5048224;28;20264;-44
2020/12/12 03:33:04;;;;;;;12.60;9.83;;;6.70;99.90;;;;;;5047775;28;20507;-46
2020/12/12 03:35:32;;;;;;;12.80;10.37;;;6.90;99.90;;;;;;5048044;28;20391;-45
2020/12/12 03:38:01;;;;;;;13.37;10.87;;;6.80;99.90;;;;;;5048419;28;20822;-46
2020/12/12 03:40:26;;;;;;;11.70;9.50;;;6.90;99.90;;;;;;5048267;28;21310;-49
2020/12/12 03:42:53;;;;;;;13.27;10.40;;;6.70;99.90;;;;;;5047920;28;20440;-45
2020/12/12 03:45:21;;;;;;;10.83;9.03;;;6.70;99.90;;;;;;5047980;28;20655;-45
2020/12/12 03:47:50;;;;;;;13.80;10.40;;;6.70;99.90;;;;;;5048123;28;20498;-47
2020/12/12 03:50:16;;;;;;;11.67;9.00;;;6.70;99.90;;;;;;5047599;28;20432;-45
2020/12/12 03:52:42;;;;;;;13.10;10.10;;;6.60;99.90;;;;;;5048228;28;20438;-46
2020/12/12 03:55:08;;;;;;;14.83;10.23;;;6.60;99.90;;;;;;5047539;28;20774;-43
2020/12/12 03:57:34;;;;;;;13.40;10.20;;;6.70;99.90;;;;;;5047233;28;20198;-47
2020/12/12 03:59:59;;;;;;;12.60;9.23;;;6.60;99.90;;;;;;5047899;28;20787;-46
2020/12/12 04:02:25;;;;;;;13.17;9.93;;;6.80;99.90;;;;;;5047347;28;20190;-43
2020/12/12 04:04:51;;;;;;;13.20;10.50;;;6.80;99.90;;;;;;5047463;28;20200;-46
2020/12/12 04:07:17;;;;;;;13.10;9.60;;;6.40;99.90;;;;;;5047659;28;20189;-49
2020/12/12 04:09:43;;;;;;;13.23;10.23;;;6.60;99.90;;;;;;5047947;28;20420;-48
2020/12/12 04:12:08;;;;;;;14.03;10.33;;;6.50;99.90;;;;;;5047565;28;20650;-45
2020/12/12 04:14:34;;;;;;;12.63;9.03;;;6.80;99.90;;;;;;5046083;28;20182;-45
2020/12/12 04:16:59;;;;;;;12.30;9.27;;;6.70;99.90;;;;;;5047172;28;20208;-44
2020/12/12 04:19:25;;;;;;;14.10;10.83;;;6.70;99.90;;;;;;5047690;28;20228;-47
2020/12/12 04:21:51;;;;;;;13.37;9.97;;;6.60;99.90;;;;;;5047451;28;20251;-45
2020/12/12 04:24:16;;;;;;;11.90;9.00;;;6.50;99.90;;;;;;5047090;28;20193;-46
2020/12/12 04:26:42;;;;;;;12.40;10.03;;;6.40;99.90;;;;;;5047394;28;20205;-50
2020/12/12 04:29:08;;;;;;;13.00;9.80;;;6.60;99.90;;;;;;5047820;28;20286;-44
2020/12/12 04:31:34;;;;;;;12.87;9.13;;;6.60;99.90;;;;;;5047683;28;20243;-43
2020/12/12 04:34:00;;;;;;;12.50;9.47;;;6.70;99.90;;;;;;5047123;28;20194;-44
2020/12/12 04:36:26;;;;;;;13.17;9.80;;;6.80;99.90;;;;;;5047667;28;20452;-44
2020/12/12 04:38:52;;;;;;;12.60;9.37;;;6.80;99.90;;;;;;5047368;28;20665;-45
2020/12/12 04:41:18;;;;;;;11.90;9.13;;;6.90;99.90;;;;;;5047440;28;20467;-43
2020/12/12 04:43:44;;;;;;;12.80;9.67;;;6.60;99.90;;;;;;5046628;28;20276;-48
2020/12/12 04:46:12;;;;;;;14.97;9.10;;;6.80;99.90;;;;;;5047182;28;20926;-49
2020/12/12 04:48:39;;;;;;;13.17;9.70;;;6.80;99.90;;;;;;5047586;28;20464;-46
2020/12/12 04:51:06;;;;;;;10.33;8.60;;;6.70;99.90;;;;;;5047472;28;20491;-48
2020/12/12 04:53:32;;;;;;;13.80;9.50;;;6.50;99.90;;;;;;5046491;28;20417;-46
2020/12/12 04:56:02;;;;;;;12.53;9.53;;;6.90;99.90;;;;;;5046544;28;20424;-47
2020/12/12 04:58:28;;;;;;;13.93;10.40;;;6.80;99.90;;;;;;5046997;28;20945;-49
2020/12/12 05:00:57;;;;;;;14.00;10.40;;;6.80;99.90;;;;;;5047524;28;20772;-45
2020/12/12 05:03:25;;;;;;;13.97;10.43;;;6.90;99.90;;;;;;5050710;28;20428;-43
2020/12/12 05:05:51;;;;;;;14.13;10.10;;;6.70;99.90;;;;;;5051257;28;20428;-47
2020/12/12 05:08:17;;;;;;;13.97;10.33;;;6.70;99.90;;;;;;5050794;28;20463;-44
2020/12/12 05:10:48;;;;;;;12.70;10.00;;;6.70;99.90;;;;;;5051493;28;20455;-45
2020/12/12 05:13:25;;;;;;;14.40;11.47;;;7.00;99.90;;;;;;5050230;28;20420;-50
2020/12/12 05:15:53;;;;;;;13.97;10.40;;;6.90;99.90;;;;;;5050994;28;20424;-44
2020/12/12 05:18:19;;;;;;;13.03;9.77;;;6.90;99.90;;;;;;5050468;28;20513;-48
2020/12/12 05:20:45;;;;;;;13.30;9.87;;;6.90;99.90;;;;;;5050970;28;20428;-44
2020/12/12 05:23:12;;;;;;;12.97;10.20;;;6.90;99.90;;;;;;5050352;28;20794;-44
2020/12/12 05:25:39;;;;;;;11.80;9.40;;;6.90;99.90;;;;;;5050310;28;20464;-45
2020/12/12 05:28:07;;;;;;;13.90;10.20;;;7.00;99.90;;;;;;5050561;28;20467;-44
2020/12/12 05:30:37;;;;;;;12.80;9.83;;;7.00;99.90;;;;;;5050658;28;20446;-46
2020/12/12 05:33:08;;;;;;;13.10;9.70;;;7.00;99.90;;;;;;5048821;28;20935;-44
2020/12/12 05:35:33;;;;;;;11.03;9.00;;;7.00;99.90;;;;;;5050498;28;20420;-44
2020/12/12 05:38:04;;;;;;;13.87;9.97;;;6.90;99.90;;;;;;5050340;28;20438;-45
2020/12/12 05:40:30;;;;;;;12.37;8.67;;;6.90;99.90;;;;;;5050494;28;20428;-44
2020/12/12 05:42:59;;;;;;;14.20;10.10;;;7.10;99.90;;;;;;5049878;28;20855;-50
2020/12/12 05:45:25;;;;;;;14.20;10.87;;;7.10;99.90;;;;;;5050101;28;20926;-45
2020/12/12 05:47:51;;;;;;;13.87;10.87;;;6.80;99.90;;;;;;5050147;28;20517;-43
2020/12/12 05:50:16;;;;;;;13.80;10.27;;;7.10;99.90;;;;;;5049115;28;20186;-46
2020/12/12 05:52:42;;;;;;;12.57;10.03;;;6.80;99.90;;;;;;5049940;28;20202;-45
2020/12/12 05:55:09;;;;;;;12.37;9.33;;;7.00;99.90;;;;;;5049518;28;20213;-46
2020/12/12 05:57:37;;;;;;;15.13;11.27;;;7.00;99.90;;;;;;5049057;28;20198;-44
2020/12/12 06:00:05;;;;;;;13.33;9.87;;;6.80;99.90;;;;;;5050071;28;20428;-43
2020/12/12 06:02:34;;;;;;;14.83;10.13;;;7.00;99.90;;;;;;5050045;28;20896;-44
2020/12/12 06:05:06;;;;;;;14.73;11.10;;;7.00;99.90;;;;;;5049146;28;20887;-46
2020/12/12 06:07:33;;;;;;;13.70;10.07;;;7.10;99.90;;;;;;5049839;28;20432;-43
2020/12/12 06:10:02;;;;;;;13.90;10.53;;;6.90;99.90;;;;;;5049685;28;20794;-46
2020/12/12 06:12:28;;;;;;;14.23;10.57;;;7.00;99.90;;;;;;5049925;28;20424;-45
2020/12/12 06:14:58;;;;;;;12.53;9.73;;;6.90;99.90;;;;;;5048561;28;20507;-44
2020/12/12 06:17:37;;;;;;;13.17;9.97;;;6.90;99.90;;;;;;5049662;28;20440;-46
2020/12/12 06:20:05;;;;;;;14.43;10.30;;;6.90;99.90;;;;;;5049673;28;20473;-48
2020/12/12 06:22:32;;;;;;;15.90;10.90;;;6.90;99.90;;;;;;5049596;28;20608;-43
2020/12/12 06:25:02;;;;;;;14.20;9.57;;;6.80;99.90;;;;;;5049148;28;20444;-45
2020/12/12 06:27:39;;;;;;;14.37;10.60;;;6.90;99.90;;;;;;5049658;28;20436;-47
2020/12/12 06:30:11;;;;;;;15.20;11.13;;;6.90;99.90;;;;;;5049278;28;20432;-43
2020/12/12 06:32:37;;;;;;;16.43;10.80;;;6.80;99.90;;;;;;5049316;28;20679;-44
2020/12/12 06:35:03;;;;;;;13.63;10.83;;;6.80;99.90;;;;;;5049053;28;20451;-45
2020/12/12 06:37:33;;;;;;;13.43;9.00;;;6.90;99.90;;;;;;5048293;28;21012;-52
2020/12/12 06:40:05;;;;;;;16.50;12.20;;;7.10;99.90;;;;;;5065595;28;20442;-44
2020/12/12 06:42:41;;;;;;;14.10;9.87;;;6.90;99.90;;;;;;5043815;28;20456;-45
2020/12/12 06:45:13;;;;;;;12.57;9.17;;;6.90;99.90;;;;;;5048681;28;20416;-44
2020/12/12 06:47:41;;;;;;;13.50;9.80;;;6.90;99.90;;;;;;5048863;28;20452;-46
2020/12/12 06:50:09;;;;;;;13.23;10.17;;;6.80;99.90;;;;;;5049264;28;20831;-45
2020/12/12 06:52:35;;;;;;;15.00;10.77;;;7.10;99.90;;;;;;5049266;28;20427;-47
2020/12/12 06:55:06;;;;;;;13.60;9.57;;;7.00;99.90;;;;;;5048919;28;20522;-45
2020/12/12 06:57:56;;;;;;;16.23;10.90;;;7.10;99.90;;;;;;5046299;28;20613;-43
2020/12/12 07:00:31;;;;;;;13.27;9.67;;;7.00;99.90;;;;;;5048417;28;20469;-44
2020/12/12 07:03:07;;;;;;;12.97;10.30;;;6.80;99.90;;;;;;5048114;28;20480;-46
2020/12/12 07:05:35;;;;;;;12.27;10.00;;;7.00;99.90;;;;;;5048145;28;20419;-45
2020/12/12 07:08:08;;;;;;;13.50;10.40;;;7.00;99.90;;;;;;5048634;28;20460;-46
2020/12/12 07:10:36;;;;;;;12.27;9.30;;;7.00;99.90;;;;;;5049194;28;20429;-47
2020/12/12 07:13:03;;;;;;;13.60;9.73;;;6.90;99.90;;;;;;5048405;28;20837;-49
2020/12/12 07:15:30;;;;;;;12.13;9.60;;;6.90;99.90;;;;;;5048581;28;20417;-45
2020/12/12 07:18:01;;;;;;;11.80;9.23;;;6.90;99.90;;;;;;5048438;28;20444;-48
2020/12/12 07:20:38;;;;;;;13.17;9.63;;;7.10;99.90;;;;;;5048417;28;20818;-45
2020/12/12 07:23:05;;;;;;;14.37;9.20;;;7.10;99.90;;;;;;5047909;28;20448;-42
2020/12/12 07:25:33;;;;;;;11.03;9.10;;;7.10;99.90;;;;;;5055636;28;20500;-44
2020/12/12 07:27:59;;;;;;;13.03;10.03;;;7.10;99.90;;;;;;5049643;28;20471;-45
2020/12/12 07:30:25;;;;;;;11.03;8.00;;;7.10;99.90;;;;;;5049378;28;20519;-47
2020/12/12 07:32:50;;;;;;;11.17;8.50;;;7.10;99.90;;;;;;5049333;28;20977;-44
2020/12/12 07:35:16;;;;;;;9.90;8.17;;;7.10;99.90;;;;;;5047787;28;20273;-43
2020/12/12 07:37:42;;;;;;;9.43;8.03;;;7.10;99.90;;;;;;5044051;28;20272;-46
2020/12/12 07:40:08;;;;;;;11.93;8.67;;;7.00;99.90;;;;;;5047047;28;20984;-47
2020/12/12 07:42:35;;;;;;;10.80;8.50;;;7.10;99.90;;;;;;5041660;28;20787;-46
2020/12/12 07:45:23;;;;;;;10.90;8.43;;;7.10;99.90;;;;;;5045521;28;20460;-50
2020/12/12 07:47:49;;;;;;;9.23;7.83;;;7.00;99.90;;;;;;5045991;28;20463;-45
2020/12/12 07:50:15;;;;;;;10.10;8.77;;;7.10;99.90;;;;;;5046717;28;20486;-46
2020/12/12 07:52:41;;;;;;;11.07;8.33;;;7.30;99.90;;;;;;5047406;28;20182;-47
2020/12/12 07:55:10;;;;;;;10.83;8.60;;;7.20;99.90;;;;;;5043303;28;20213;-48
2020/12/12 07:57:39;;;;;;;9.93;7.80;;;7.10;99.90;;;;;;5044186;28;20825;-48
2020/12/12 08:00:10;;;;;;;9.93;8.30;;;7.10;99.90;;;;;;5048761;28;20523;-47
2020/12/12 08:02:36;;;;;;;10.67;8.27;;;7.20;99.90;;;;;;5050440;28;20420;-45
2020/12/12 08:05:04;;;;;;;9.87;8.00;;;7.20;99.90;;;;;;5044546;28;20439;-47
2020/12/12 08:07:32;;;;;;;11.87;8.77;;;7.10;99.90;;;;;;5053992;28;20217;-50
2020/12/12 08:09:58;;;;;;;11.00;8.97;;;7.20;99.90;;;;;;5063519;28;20427;-46
2020/12/12 08:12:32;;;;;;;12.10;9.80;;;7.20;99.90;;;;;;5068517;28;20428;-48
2020/12/12 08:15:26;;;;;;;11.30;8.73;;;7.30;99.90;;;;;;5054614;28;20507;-51
2020/12/12 08:17:51;;;;;;;11.10;9.30;;;7.30;99.90;;;;;;5044415;28;20535;-47
2020/12/12 08:20:24;;;;;;;12.37;9.30;;;7.20;99.90;;;;;;5067737;28;21062;-48
2020/12/12 08:22:51;;;;;;;9.43;8.00;;;7.10;99.90;;;;;;5060184;28;20204;-44
2020/12/12 08:25:18;;;;;;;10.70;8.67;;;7.30;99.90;;;;;;5048919;28;20473;-50
2020/12/12 08:27:45;;;;;;;11.40;9.00;;;7.30;99.90;;;;;;5042620;28;20543;-45
2020/12/12 08:30:10;;;;;;;10.90;8.83;;;7.20;99.90;;;;;;5045448;28;20557;-48
2020/12/12 08:32:40;;;;;;;12.27;9.30;;;7.40;99.90;;;;;;5048564;28;20523;-46
2020/12/12 08:35:20;;;;;;;11.50;9.40;;;7.40;99.90;;;;;;5045807;28;20196;-47
2020/12/12 08:38:01;;;;;;;11.00;8.90;;;7.30;99.90;;;;;;5050340;28;20427;-48
2020/12/12 08:40:54;;;;;;;11.03;9.10;;;7.30;99.90;;;;;;5051529;28;20945;-44
2020/12/12 08:43:20;;;;;;;9.40;8.30;;;7.20;99.90;;;;;;5049867;28;20930;-48
2020/12/12 08:45:57;;;;;;;12.87;9.47;;;7.10;99.90;;;;;;5055929;28;20435;-48
2020/12/12 08:48:33;;;;;;;10.97;9.50;;;7.30;99.90;;;;;;5050551;28;20623;-48
2020/12/12 08:51:01;;;;;;;11.57;9.30;;;7.30;99.90;;;;;;5048309;28;20432;-50
2020/12/12 08:53:26;;;;;;;10.87;9.60;;;7.40;99.90;;;;;;5046595;28;20465;-43
2020/12/12 08:56:11;;;;;;;12.77;9.97;;;7.20;99.90;;;;;;5048959;28;20543;-47
2020/12/12 08:58:50;;;;;;;12.10;9.83;;;7.20;99.90;;;;;;5048279;28;20186;-46
2020/12/12 09:01:32;;;;;;;13.93;10.23;;;7.30;99.90;;;;;;5045621;28;20804;-47
2020/12/12 09:04:10;;;;;;;12.63;10.00;;;7.40;99.90;;;;;;5041831;28;20416;-51
2020/12/12 09:06:50;;;;;;;13.10;10.57;;;7.30;99.90;;;;;;5051009;28;20526;-47
2020/12/12 09:09:23;;;;;;;11.47;9.20;;;7.30;99.90;;;;;;5040488;28;21071;-44
2020/12/12 09:11:53;;;;;;;10.77;9.23;;;7.40;99.90;;;;;;5050718;28;20428;-47
2020/12/12 09:14:20;;;;;;;10.80;9.13;;;7.30;99.90;;;;;;5048565;28;20412;-52
2020/12/12 09:16:51;;;;;;;13.37;9.73;;;7.40;99.90;;;;;;5050273;28;20479;-47
2020/12/12 09:19:17;;;;;;;12.17;9.60;;;7.40;99.90;;;;;;5048982;28;20517;-47
2020/12/12 09:21:43;;;;;;;12.37;9.97;;;7.40;99.90;;;;;;5050665;28;20760;-44
2020/12/12 09:24:09;;;;;;;10.87;9.50;;;7.30;99.90;;;;;;5050069;28;20468;-45
2020/12/12 09:26:35;;;;;;;10.07;9.07;;;7.30;99.90;;;;;;5050775;28;20560;-44
2020/12/12 09:29:00;;;;;;;13.20;10.20;;;7.30;99.90;;;;;;5038145;28;20214;-45
2020/12/12 09:31:27;;;;;;;11.50;9.23;;;7.50;99.90;;;;;;5048016;28;20474;-44
2020/12/12 09:33:53;;;;;;;11.67;9.63;;;7.50;99.90;;;;;;5049852;28;20182;-49
2020/12/12 09:36:18;;;;;;;10.00;8.83;;;7.40;99.90;;;;;;5049311;28;20436;-46
2020/12/12 09:38:44;;;;;;;10.87;8.83;;;7.30;99.90;;;;;;5048934;28;20918;-47
2020/12/12 09:41:10;;;;;;;10.37;7.93;;;7.40;99.90;;;;;;5050530;28;20501;-44
2020/12/12 09:43:36;;;;;;;9.47;7.70;;;7.60;99.90;;;;;;5049523;28;20198;-46
2020/12/12 09:46:04;;;;;;;10.53;8.90;;;7.50;99.90;;;;;;5050409;28;20438;-46
2020/12/12 09:48:30;;;;;;;10.67;8.53;;;7.60;99.90;;;;;;5047832;28;20468;-50
2020/12/12 09:50:56;;;;;;;9.20;7.90;;;7.40;99.90;;;;;;5049994;28;20481;-44
2020/12/12 09:53:21;;;;;;;10.03;7.70;;;7.50;99.90;;;;;;5049540;28;20300;-46
2020/12/12 09:55:47;;;;;;;11.10;7.33;;;7.50;99.90;;;;;;5049911;28;20193;-45
2020/12/12 09:58:13;;;;;;;9.40;8.40;;;7.60;99.90;;;;;;5050017;28;20217;-47
2020/12/12 10:00:40;;;;;;;9.33;7.20;;;7.50;99.90;;;;;;5049428;28;20200;-48
2020/12/12 10:03:06;;;;;;;8.47;7.03;;;7.60;99.90;;;;;;5049403;28;20488;-45
2020/12/12 10:05:33;;;;;;;7.70;6.70;;;7.40;99.90;;;;;;5049528;28;20650;-44
2020/12/12 10:07:59;;;;;;;8.53;7.70;;;7.70;99.90;;;;;;5048508;28;20472;-46
2020/12/12 10:10:26;;;;;;;7.27;6.50;;;7.60;99.90;;;;;;5049698;28;21052;-48
2020/12/12 10:12:52;;;;;;;7.13;6.03;;;7.60;99.90;;;;;;5049187;28;20450;-45
2020/12/12 10:15:19;;;;;;;9.37;6.50;;;7.70;99.90;;;;;;5048951;28;20416;-46
2020/12/12 10:17:46;;;;;;;6.77;6.07;;;7.80;99.90;;;;;;5047975;28;20820;-47
2020/12/12 10:20:12;;;;;;;6.07;5.47;;;7.80;99.90;;;;;;5049299;28;20513;-44
2020/12/12 10:22:39;;;;;;;8.07;6.60;;;7.80;99.90;;;;;;5048178;28;20982;-47
2020/12/12 10:25:06;;;;;;;7.13;5.80;;;7.80;99.90;;;;;;5048781;28;20355;-45
2020/12/12 10:27:32;;;;;;;6.97;6.03;;;7.80;99.90;;;;;;5049374;28;20539;-44
2020/12/12 10:29:58;;;;;;;6.73;6.03;;;7.90;99.90;;;;;;5047983;28;20497;-48
2020/12/12 10:32:23;;;;;;;6.53;5.80;;;7.80;99.90;;;;;;5050039;28;20516;-45
2020/12/12 10:34:49;;;;;;;7.40;6.30;;;7.80;99.90;;;;;;5048765;28;20679;-45
2020/12/12 10:37:15;;;;;;;7.30;6.50;;;7.80;99.90;;;;;;5049264;28;20207;-46
2020/12/12 10:40:29;;;;;;;7.63;6.63;;;7.60;99.90;;;;;;5049105;28;20338;-48
2020/12/12 10:42:26;;;;;;;8.70;6.23;;;7.60;99.90;;;;;;5051326;28;20573;-47
2020/12/12 10:44:52;;;;;;;6.30;5.70;;;7.50;99.90;;;;;;5048618;28;20432;-43
2020/12/12 10:47:18;;;;;;;6.17;5.57;;;7.80;99.90;;;;;;5048810;28;20577;-45
2020/12/12 10:49:44;;;;;;;9.20;6.80;;;7.80;99.90;;;;;;5048906;28;20596;-45
2020/12/12 10:52:09;;;;;;;8.23;5.60;;;7.70;99.90;;;;;;5048944;28;20182;-45
2020/12/12 10:54:35;;;;;;;6.10;5.50;;;7.80;99.90;;;;;;5048781;28;20185;-44
2020/12/12 10:57:01;;;;;;;5.60;4.77;;;7.80;99.90;;;;;;5048462;28;20222;-46
2020/12/12 10:59:27;;;;;;;6.97;6.27;;;7.60;99.90;;;;;;5048830;28;20213;-45
2020/12/12 11:01:54;;;;;;;5.57;4.93;;;7.60;99.90;;;;;;5047535;28;20216;-44
2020/12/12 11:04:21;;;;;;;7.97;5.57;;;7.70;99.90;;;;;;5048152;28;20512;-50
2020/12/12 11:06:46;;;;;;;5.30;4.80;;;7.70;99.90;;;;;;5048695;28;20779;-49
2020/12/12 11:09:12;;;;;;;5.43;4.93;;;8.00;99.90;;;;;;5048635;28;20472;-46
2020/12/12 11:11:39;;;;;;;5.53;5.03;;;7.60;99.90;;;;;;5048146;28;20428;-46
2020/12/12 11:14:06;;;;;;;6.57;5.57;;;7.70;99.90;;;;;;5047967;28;20918;-50
2020/12/12 11:16:32;;;;;;;6.53;5.87;;;7.70;99.90;;;;;;5040731;28;20448;-44
2020/12/12 11:18:57;;;;;;;6.80;6.20;;;7.90;99.90;;;;;;5041962;28;20445;-46
2020/12/12 11:21:24;;;;;;;5.97;5.37;;;7.90;99.90;;;;;;5047831;28;20515;-47
2020/12/12 11:23:50;;;;;;;7.90;6.07;;;7.70;99.90;;;;;;5047200;28;20193;-46
2020/12/12 11:26:17;;;;;;;6.90;6.17;;;8.00;99.90;;;;;;5050479;28;20816;-44
2020/12/12 11:28:44;;;;;;;6.17;5.57;;;8.00;99.90;;;;;;5047821;28;20466;-45
2020/12/12 11:31:11;;;;;;;6.17;5.53;;;7.70;99.90;;;;;;5047536;28;20456;-44
2020/12/12 11:33:39;;;;;;;6.70;5.90;;;7.90;99.90;;;;;;5048463;28;20729;-44
2020/12/12 11:41:33;;;;;;;6.43;5.83;;;7.60;99.90;;;;;;5047158;28;20432;-47
2020/12/12 11:46:37;;;;;;;9.90;6.93;;;7.70;99.90;;;;;;5047518;28;20432;-45
2020/12/12 11:49:08;;;;;;;5.80;5.30;;;7.80;99.90;;;;;;5047626;28;20809;-46
2020/12/12 11:51:37;;;;;;;6.07;5.47;;;7.80;99.90;;;;;;5046395;28;20870;-46
2020/12/12 11:54:03;;;;;;;5.63;5.10;;;7.90;99.90;;;;;;5045441;28;21088;-43
2020/12/12 11:56:29;;;;;;;6.60;5.90;;;8.00;99.90;;;;;;5047703;28;20450;-47
2020/12/12 11:58:55;;;;;;;6.63;5.70;;;8.00;99.90;;;;;;5050092;28;20470;-46
2020/12/12 12:01:22;;;;;;;6.60;5.90;;;7.90;99.90;;;;;;5047538;28;20540;-47
2020/12/12 12:03:50;;;;;;;6.50;5.43;;;8.20;99.90;;;;;;5047519;28;20668;-45
2020/12/12 12:06:16;;;;;;;6.10;5.20;;;8.00;99.90;;;;;;5048873;28;20827;-45
2020/12/12 12:11:29;;;;;;;6.60;6.00;;;8.20;99.90;;;;;;5049139;28;20420;-44
2020/12/12 12:14:13;;;;;;;6.00;5.40;;;8.30;99.90;;;;;;5045846;28;20423;-43
2020/12/12 12:16:39;;;;;;;7.30;5.20;;;8.30;99.90;;;;;;5046817;28;20436;-44
2020/12/12 12:19:16;;;;;;;5.03;4.50;;;8.20;99.90;;;;;;5045763;28;20424;-46
2020/12/12 12:21:46;;;;;;;7.50;5.60;;;8.40;99.90;;;;;;5047931;28;20428;-43
2020/12/12 12:24:15;;;;;;;6.73;5.23;;;8.30;99.90;;;;;;5046589;28;20416;-45
2020/12/12 12:26:40;;;;;;;7.13;6.43;;;8.10;99.90;;;;;;5047349;28;20851;-44
2020/12/12 12:29:07;;;;;;;6.37;5.80;;;8.20;99.90;;;;;;5043487;28;20533;-49
2020/12/12 12:31:37;;;;;;;7.10;5.67;;;8.20;99.90;;;;;;5047403;28;20239;-46
2020/12/12 12:34:03;;;;;;;7.40;6.70;;;8.30;99.90;;;;;;5039455;28;20420;-45
2020/12/12 12:36:30;;;;;;;6.60;5.87;;;8.40;99.90;;;;;;5047362;28;20482;-46
2020/12/12 12:38:57;;;;;;;9.50;6.30;;;8.20;99.90;;;;;;5047221;28;20205;-47
2020/12/12 12:41:27;;;;;;;5.37;4.87;;;8.20;99.90;;;;;;5047545;28;20472;-45
2020/12/12 12:44:00;;;;;;;6.07;5.47;;;8.10;99.90;;;;;;5046816;28;20439;-44
2020/12/12 12:46:26;;;;;;;6.43;5.83;;;8.20;99.90;;;;;;5047292;28;20447;-44
2020/12/12 12:48:52;;;;;;;7.07;5.97;;;8.20;99.90;;;;;;5047276;28;20455;-44
2020/12/12 12:51:17;;;;;;;6.33;5.43;;;8.50;99.90;;;;;;5047105;28;20424;-47
2020/12/12 12:53:43;;;;;;;5.73;5.23;;;8.30;99.90;;;;;;5046466;28;20250;-43
2020/12/12 12:56:09;;;;;;;5.87;5.27;;;8.50;99.90;;;;;;5046528;28;20190;-44
2020/12/12 12:58:34;;;;;;;7.13;6.30;;;8.30;99.90;;;;;;5049194;28;20216;-44